Time;durP1;ratioP1;P1;durP2;ratioP2;P2;SDS_P1;SDS_P2;PMS_P1;PMS_P2;Temp;Humidity;BMP_temperature;BMP_pressure;BME280_temperature;BME280_humidity;BME280_pressure;Samples;Min_cycle;Max_cycle;Signal;HPM_P1;HPM_P2
2022/05/09 00:01:29;;;;;;;8.97;3.77;;;;;;;14.71;63.33;99552.63;5050386;28;20177;-82
2022/05/09 00:03:55;;;;;;;9.40;3.83;;;;;;;14.70;63.14;99545.66;5049449;28;20177;-82
2022/05/09 00:06:20;;;;;;;8.80;3.43;;;;;;;14.67;63.04;99544.03;5050316;28;20177;-82
2022/05/09 00:08:46;;;;;;;5.30;2.90;;;;;;;14.67;63.32;99543.22;5050313;28;20182;-82
2022/05/09 00:11:12;;;;;;;5.67;3.13;;;;;;;14.54;63.37;99548.38;5050567;28;20181;-82
2022/05/09 00:13:38;;;;;;;8.87;3.63;;;;;;;14.49;63.94;99544.38;5050267;28;20234;-82
2022/05/09 00:16:04;;;;;;;10.00;4.37;;;;;;;14.43;63.24;99544.75;5050511;28;20174;-82
2022/05/09 00:18:30;;;;;;;15.17;3.97;;;;;;;14.39;63.00;99538.78;5050728;28;20181;-82
2022/05/09 00:20:55;;;;;;;7.63;3.43;;;;;;;14.38;63.72;99545.03;5050102;28;20224;-83
2022/05/09 00:23:21;;;;;;;7.83;3.50;;;;;;;14.41;63.78;99542.19;5050432;28;20534;-82
2022/05/09 00:25:46;;;;;;;8.40;4.13;;;;;;;14.22;64.85;99546.00;5050117;28;20209;-82
2022/05/09 00:28:12;;;;;;;9.40;3.83;;;;;;;14.14;64.96;99549.97;5050350;28;20290;-82
2022/05/09 00:30:37;;;;;;;9.47;3.70;;;;;;;14.10;65.55;99555.50;5052686;28;20175;-82
2022/05/09 00:33:04;;;;;;;8.53;4.43;;;;;;;14.11;65.21;99550.16;5052663;28;20303;-82
2022/05/09 00:35:29;;;;;;;6.33;3.47;;;;;;;14.04;65.13;99548.84;5053832;28;20178;-82
2022/05/09 00:37:55;;;;;;;10.87;3.30;;;;;;;14.08;64.79;99554.75;5053566;28;20604;-82
2022/05/09 00:40:21;;;;;;;9.27;3.43;;;;;;;14.01;64.94;99553.44;5053669;28;20277;-82
2022/05/09 00:42:51;;;;;;;10.90;3.30;;;;;;;14.00;64.95;99552.59;5053468;28;20269;-82
2022/05/09 00:45:20;;;;;;;6.77;3.43;;;;;;;13.97;64.97;99552.75;5052524;28;20169;-82
2022/05/09 00:47:46;;;;;;;14.97;4.73;;;;;;;13.95;65.31;99552.00;5052399;28;20233;-82
2022/05/09 00:50:16;;;;;;;9.50;3.67;;;;;;;13.86;65.34;99552.53;5053330;28;20182;-82
2022/05/09 00:52:53;;;;;;;7.17;3.47;;;;;;;13.79;65.25;99558.25;5052311;28;20166;-83
2022/05/09 00:55:21;;;;;;;6.63;2.93;;;;;;;13.79;65.36;99550.38;5053553;28;20214;-82
2022/05/09 00:58:06;;;;;;;5.13;2.63;;;;;;;13.69;65.41;99552.69;5053779;28;20624;-83
2022/05/09 01:00:33;;;;;;;6.63;3.30;;;;;;;13.74;65.08;99550.66;5053178;28;20240;-83
2022/05/09 01:03:04;;;;;;;9.73;3.80;;;;;;;13.73;65.72;99553.38;5053152;28;20249;-83
2022/05/09 01:05:30;;;;;;;7.17;3.10;;;;;;;13.65;65.27;99556.47;5053148;28;20170;-83
2022/05/09 01:07:57;;;;;;;5.00;2.90;;;;;;;13.64;65.54;99560.03;5052022;28;20199;-82
2022/05/09 01:10:31;;;;;;;7.37;2.87;;;;;;;13.60;65.21;99555.84;5053376;28;20162;-82
2022/05/09 01:13:00;;;;;;;4.87;2.83;;;;;;;13.61;65.68;99554.06;5053298;28;20629;-82
2022/05/09 01:15:26;;;;;;;7.57;3.00;;;;;;;13.60;65.13;99553.22;5052937;28;20189;-82
2022/05/09 01:17:52;;;;;;;5.57;2.27;;;;;;;13.51;64.91;99554.63;5052932;28;20174;-82
2022/05/09 01:20:18;;;;;;;7.30;3.37;;;;;;;13.46;64.79;99555.81;5052812;28;20201;-83
2022/05/09 01:22:43;;;;;;;4.20;2.13;;;;;;;13.47;64.35;99547.81;5052840;28;20180;-83
2022/05/09 01:25:12;;;;;;;3.73;2.37;;;;;;;13.52;63.96;99544.94;5053104;28;20182;-83
2022/05/09 01:27:40;;;;;;;7.23;2.53;;;;;;;13.44;63.56;99552.44;5053317;28;20604;-82
2022/05/09 01:30:16;;;;;;;5.47;2.37;;;;;;;13.30;64.21;99549.72;5052709;28;20202;-83
2022/05/09 01:32:57;;;;;;;6.20;2.97;;;;;;;13.28;63.92;99551.63;5053019;28;20526;-83
2022/05/09 01:35:41;;;;;;;5.80;2.23;;;;;;;13.30;64.15;99555.84;5052929;28;20177;-83
2022/05/09 01:38:21;;;;;;;4.33;2.07;;;;;;;13.33;64.54;99546.94;5051687;28;20191;-83
2022/05/09 01:40:47;;;;;;;8.33;2.20;;;;;;;13.07;67.09;99558.09;5051579;28;20219;-83
2022/05/09 01:43:13;;;;;;;4.53;1.90;;;;;;;13.10;66.77;99547.41;5052431;28;20683;-83
2022/05/09 01:45:38;;;;;;;14.10;3.43;;;;;;;13.07;66.32;99552.81;5052452;28;20187;-83
2022/05/09 01:50:47;;;;;;;4.23;2.53;;;;;;;12.97;65.50;99552.44;5052413;28;20583;-83
2022/05/09 01:53:13;;;;;;;4.83;2.80;;;;;;;13.01;64.92;99551.34;5052219;28;20197;-83
2022/05/09 01:55:38;;;;;;;3.33;2.17;;;;;;;13.08;64.53;99552.72;5052597;28;20184;-83
2022/05/09 01:58:05;;;;;;;7.33;2.13;;;;;;;13.07;64.87;99552.81;5052569;28;20183;-83
2022/05/09 02:00:32;;;;;;;4.50;2.50;;;;;;;13.06;65.20;99551.09;5051248;28;20211;-83
2022/05/09 02:02:59;;;;;;;5.90;2.57;;;;;;;13.00;65.80;99547.00;5051301;28;20185;-83
2022/05/09 02:05:24;;;;;;;5.33;2.60;;;;;;;12.98;66.37;99548.03;5052220;28;20229;-83
2022/05/09 02:07:50;;;;;;;6.40;2.83;;;;;;;12.95;66.63;99552.53;5052213;28;20537;-83
2022/05/09 02:10:16;;;;;;;6.50;3.13;;;;;;;12.92;66.65;99551.84;5052214;28;20627;-83
2022/05/09 02:12:42;;;;;;;6.00;3.60;;;;;;;12.88;66.04;99566.97;5052112;28;20188;-83
2022/05/09 02:15:08;;;;;;;7.07;3.07;;;;;;;12.92;66.17;99559.75;5051114;28;20215;-83
2022/05/09 02:17:34;;;;;;;6.77;3.93;;;;;;;12.90;65.89;99559.84;5052040;28;20175;-83
2022/05/09 02:19:59;;;;;;;9.40;3.70;;;;;;;12.92;66.23;99565.84;5051065;28;20667;-83
2022/05/09 02:22:25;;;;;;;8.80;3.67;;;;;;;12.82;67.15;99561.19;5052235;28;20176;-83
2022/05/09 02:24:52;;;;;;;11.17;4.33;;;;;;;12.84;68.39;99561.97;5051903;28;20612;-83
2022/05/09 02:27:17;;;;;;;12.23;5.27;;;;;;;12.70;69.58;99560.09;5052118;28;20572;-83
2022/05/09 02:29:43;;;;;;;14.60;4.80;;;;;;;12.72;70.34;99562.63;5050878;28;20240;-82
2022/05/09 02:32:09;;;;;;;9.03;3.97;;;;;;;12.72;70.84;99558.22;5052038;28;20182;-83
2022/05/09 02:34:35;;;;;;;11.03;4.87;;;;;;;12.74;70.75;99556.34;5051753;28;20176;-83
2022/05/09 02:37:00;;;;;;;10.70;4.83;;;;;;;12.71;71.07;99555.69;5051720;28;20172;-83
2022/05/09 02:39:26;;;;;;;15.03;5.33;;;;;;;12.68;71.51;99556.66;5051883;28;20722;-83
2022/05/09 02:41:52;;;;;;;12.20;4.77;;;;;;;12.72;71.42;99562.63;5050668;28;20187;-83
2022/05/09 02:44:17;;;;;;;11.87;5.03;;;;;;;12.75;71.89;99557.19;5052142;28;20175;-83
2022/05/09 02:46:43;;;;;;;13.17;4.60;;;;;;;12.74;72.54;99558.13;5051789;28;20180;-83
2022/05/09 02:49:10;;;;;;;8.17;4.40;;;;;;;12.60;72.71;99564.16;5051508;28;20508;-83
2022/05/09 02:51:35;;;;;;;12.47;4.60;;;;;;;12.43;73.56;99564.19;5051377;28;20184;-83
2022/05/09 02:54:01;;;;;;;18.23;5.40;;;;;;;12.48;74.00;99563.94;5050986;28;20201;-83
2022/05/09 02:56:27;;;;;;;16.07;5.93;;;;;;;12.59;73.98;99572.09;5051471;28;20182;-83
2022/05/09 02:58:53;;;;;;;12.63;5.93;;;;;;;12.61;74.02;99570.22;5051399;28;20267;-83
2022/05/09 03:01:19;;;;;;;15.27;6.80;;;;;;;12.64;74.30;99575.34;5050321;28;20207;-83
2022/05/09 03:06:28;;;;;;;19.47;7.07;;;;;;;12.29;75.58;99585.09;5051808;28;20609;-83
2022/05/09 03:08:54;;;;;;;17.57;5.83;;;;;;;12.28;76.16;99588.66;5051193;28;20184;-83
2022/05/09 03:11:19;;;;;;;19.97;7.30;;;;;;;12.49;75.92;99578.78;5050251;28;20594;-83
2022/05/09 03:13:45;;;;;;;20.07;6.03;;;;;;;12.45;76.74;99579.91;5051108;28;20182;-83
2022/05/09 03:16:11;;;;;;;15.33;6.67;;;;;;;12.43;76.52;99582.59;5051087;28;20184;-83
2022/05/09 03:18:37;;;;;;;23.47;9.00;;;;;;;12.48;77.14;99590.22;5051088;28;20545;-83
2022/05/09 03:21:03;;;;;;;22.33;9.50;;;;;;;12.32;77.59;99590.19;5050958;28;20234;-83
2022/05/09 03:23:28;;;;;;;16.40;8.10;;;;;;;12.17;77.84;99591.00;5050973;28;20178;-83
2022/05/09 03:25:55;;;;;;;22.93;8.67;;;;;;;12.35;77.53;99600.53;5050920;28;20179;-83
2022/05/09 03:28:26;;;;;;;13.60;5.87;;;;;;;12.43;77.67;99597.50;5051180;28;20182;-83
2022/05/09 03:30:54;;;;;;;24.23;7.93;;;;;;;12.42;77.67;99607.16;5050863;28;20198;-83
2022/05/09 03:33:20;;;;;;;19.63;7.33;;;;;;;12.61;77.15;99604.41;5051348;28;20188;-83
2022/05/09 03:35:46;;;;;;;24.10;7.93;;;;;;;12.73;76.88;99604.66;5050844;28;20183;-83
2022/05/09 03:38:12;;;;;;;26.27;9.83;;;;;;;12.78;77.08;99604.38;5050804;28;20266;-83
2022/05/09 03:40:38;;;;;;;26.90;9.13;;;;;;;12.78;76.74;99610.50;5050614;28;20203;-83
2022/05/09 03:43:05;;;;;;;32.70;9.00;;;;;;;12.66;76.87;99603.25;5050665;28;20641;-83
2022/05/09 03:45:30;;;;;;;17.50;7.27;;;;;;;12.66;76.86;99605.88;5050617;28;20618;-83
2022/05/09 03:47:57;;;;;;;17.03;7.43;;;;;;;12.59;77.15;99609.78;5050896;28;20194;-83
2022/05/09 03:50:22;;;;;;;13.50;6.27;;;;;;;12.49;77.03;99619.09;5050596;28;20178;-83
2022/05/09 03:52:48;;;;;;;15.53;6.70;;;;;;;12.18;79.28;99608.47;5050384;28;20183;-82
2022/05/09 03:55:14;;;;;;;16.80;5.47;;;;;;;12.19;79.21;99613.63;5050825;28;20156;-83
2022/05/09 03:57:48;;;;;;;19.53;6.60;;;;;;;12.25;79.13;99613.34;5050532;28;20180;-83
2022/05/09 04:00:14;;;;;;;14.63;5.73;;;;;;;12.25;79.08;99613.34;5050383;28;20741;-84
2022/05/09 04:02:41;;;;;;;11.27;6.20;;;;;;;12.12;79.62;99612.25;5049482;28;20192;-83
2022/05/09 04:05:08;;;;;;;10.90;5.37;;;;;;;12.02;80.56;99618.06;5048476;28;20226;-83
2022/05/09 04:07:34;;;;;;;21.03;5.97;;;;;;;11.85;81.19;99620.66;5050369;28;20166;-83
2022/05/09 04:09:59;;;;;;;15.57;6.00;;;;;;;11.93;81.06;99623.75;5049409;28;20646;-83
2022/05/09 04:12:25;;;;;;;12.90;4.90;;;;;;;11.68;82.20;99627.63;5050583;28;20171;-82
2022/05/09 04:17:34;;;;;;;18.23;6.13;;;;;;;11.41;84.54;99631.56;5050798;28;20178;-83
2022/05/09 04:20:00;;;;;;;12.43;5.90;;;;;;;11.34;84.96;99634.56;5049156;28;20229;-83
2022/05/09 04:22:26;;;;;;;15.13;6.50;;;;;;;11.46;85.08;99629.56;5050166;28;20644;-83
2022/05/09 04:24:51;;;;;;;15.73;6.10;;;;;;;11.67;84.46;99632.91;5050117;28;20626;-83
2022/05/09 04:27:17;;;;;;;16.53;6.77;;;;;;;11.75;83.98;99629.94;5049167;28;20250;-83
2022/05/09 04:29:42;;;;;;;11.47;6.13;;;;;;;11.95;83.88;99630.66;5049116;28;20202;-83
2022/05/09 04:32:08;;;;;;;16.87;7.07;;;;;;;12.22;82.70;99636.28;5049150;28;20265;-83
2022/05/09 04:34:33;;;;;;;16.70;6.40;;;;;;;12.33;82.21;99633.97;5049980;28;20580;-83
2022/05/09 04:36:59;;;;;;;12.40;6.37;;;;;;;12.22;81.92;99636.28;5050264;28;20169;-83
2022/05/09 04:39:24;;;;;;;11.90;5.87;;;;;;;12.36;81.97;99632.94;5050411;28;20179;-83
2022/05/09 04:41:50;;;;;;;15.23;6.00;;;;;;;12.47;81.66;99631.47;5049868;28;20178;-84
2022/05/09 04:44:15;;;;;;;11.87;6.00;;;;;;;12.64;80.92;99628.78;5050140;28;20181;-83
2022/05/09 04:46:42;;;;;;;15.03;6.63;;;;;;;12.83;81.09;99639.19;5049884;28;20622;-83
2022/05/09 04:49:07;;;;;;;11.13;5.67;;;;;;;12.78;79.82;99634.19;5049816;28;20267;-83
2022/05/09 04:51:33;;;;;;;18.27;7.13;;;;;;;12.75;79.76;99626.44;5050581;28;20268;-83
2022/05/09 04:53:58;;;;;;;19.50;7.50;;;;;;;12.95;78.97;99631.47;5049686;28;20232;-83
2022/05/09 04:56:24;;;;;;;19.17;6.80;;;;;;;13.03;79.30;99638.94;5050269;28;20207;-83
2022/05/09 04:58:49;;;;;;;21.13;7.00;;;;;;;12.71;79.06;99640.69;5050254;28;20258;-83
2022/05/09 05:01:14;;;;;;;16.77;6.13;;;;;;;12.71;78.92;99640.69;5048650;28;20271;-83
2022/05/09 05:03:40;;;;;;;20.90;6.80;;;;;;;12.87;79.18;99644.19;5049647;28;20196;-83
2022/05/09 05:06:06;;;;;;;15.07;5.67;;;;;;;12.58;80.20;99654.59;5049619;28;20181;-83
2022/05/09 05:08:34;;;;;;;13.33;6.57;;;;;;;12.74;79.64;99651.03;5048662;28;20187;-84
2022/05/09 05:11:06;;;;;;;13.13;5.63;;;;;;;12.97;79.30;99652.44;5049546;28;20634;-83
2022/05/09 05:13:35;;;;;;;14.00;6.17;;;;;;;13.13;78.76;99655.13;5049528;28;20617;-83
2022/05/09 05:16:00;;;;;;;11.70;5.27;;;;;;;13.06;78.33;99651.09;5051419;28;20285;-83
2022/05/09 05:18:27;;;;;;;12.07;6.57;;;;;;;13.10;78.29;99652.66;5053244;28;20535;-83
2022/05/09 05:20:54;;;;;;;16.57;6.17;;;;;;;13.22;78.02;99660.75;5052194;28;20339;-83
2022/05/09 05:23:19;;;;;;;15.87;7.03;;;;;;;13.18;77.96;99661.00;5052896;28;20277;-83
2022/05/09 05:25:46;;;;;;;17.07;6.03;;;;;;;13.21;77.64;99660.81;5052824;28;20184;-82
2022/05/09 05:28:16;;;;;;;12.50;6.83;;;;;;;13.15;77.47;99666.44;5051870;28;20180;-82
2022/05/09 05:30:42;;;;;;;14.33;6.97;;;;;;;13.26;77.63;99669.31;5051788;28;20180;-83
2022/05/09 05:33:08;;;;;;;13.90;6.33;;;;;;;13.29;77.62;99669.13;5052702;28;20607;-83
2022/05/09 05:35:33;;;;;;;13.33;5.57;;;;;;;13.25;77.63;99665.84;5052651;28;20282;-83
2022/05/09 05:37:59;;;;;;;15.10;5.80;;;;;;;13.43;77.65;99672.72;5053206;28;20177;-83
2022/05/09 05:40:24;;;;;;;13.53;6.10;;;;;;;13.58;77.69;99663.09;5052807;28;20655;-83
2022/05/09 05:42:52;;;;;;;15.87;6.33;;;;;;;13.77;76.97;99663.75;5051642;28;20537;-83
2022/05/09 05:45:20;;;;;;;11.33;6.07;;;;;;;13.50;76.34;99662.69;5051574;28;20250;-83
2022/05/09 05:47:46;;;;;;;13.87;7.37;;;;;;;13.70;76.30;99662.41;5052513;28;20250;-83
2022/05/09 05:50:13;;;;;;;14.97;7.50;;;;;;;13.48;76.98;99667.19;5051582;28;20189;-83
2022/05/09 05:52:38;;;;;;;15.30;7.33;;;;;;;13.67;76.04;99662.59;5052682;28;20331;-83
2022/05/09 05:55:04;;;;;;;14.90;6.83;;;;;;;13.62;76.33;99655.88;5052323;28;20216;-83
2022/05/09 05:57:32;;;;;;;11.77;7.10;;;;;;;13.69;76.51;99663.34;5052387;28;20173;-83
2022/05/09 06:00:07;;;;;;;17.60;6.47;;;;;;;14.02;75.73;99665.81;5051310;28;20232;-83
2022/05/09 06:02:32;;;;;;;12.27;5.83;;;;;;;14.09;75.38;99670.66;5052250;28;20614;-84
2022/05/09 06:04:58;;;;;;;15.70;7.10;;;;;;;14.27;75.10;99666.09;5052230;28;20230;-83
2022/05/09 06:07:24;;;;;;;16.50;7.17;;;;;;;14.33;74.85;99672.84;5051259;28;20189;-83
2022/05/09 06:09:52;;;;;;;19.00;7.57;;;;;;;14.67;74.44;99659.31;5052710;28;20178;-84
2022/05/09 06:12:22;;;;;;;11.87;6.13;;;;;;;14.90;71.75;99671.94;5051182;28;20547;-83
2022/05/09 06:17:34;;;;;;;13.97;6.50;;;;;;;15.64;69.94;99669.88;5052888;28;20173;-84
2022/05/09 06:20:00;;;;;;;13.33;5.33;;;;;;;15.56;67.38;99671.31;5051898;28;20198;-83
2022/05/09 06:22:26;;;;;;;8.50;4.27;;;;;;;15.43;67.07;99673.88;5051998;28;20232;-84
2022/05/09 06:24:59;;;;;;;8.50;4.30;;;;;;;15.53;67.29;99666.22;5051916;28;20713;-84
2022/05/09 06:27:26;;;;;;;10.23;4.40;;;;;;;15.77;66.96;99667.28;5051142;28;20622;-84
2022/05/09 06:29:51;;;;;;;8.47;3.93;;;;;;;16.02;65.59;99663.84;5050937;28;20202;-83
2022/05/09 06:32:19;;;;;;;15.30;5.60;;;;;;;16.15;65.80;99660.31;5051791;28;20188;-83
2022/05/09 06:34:45;;;;;;;9.97;3.80;;;;;;;16.45;63.75;99662.69;5051774;28;20187;-83
2022/05/09 06:37:11;;;;;;;11.87;4.00;;;;;;;16.71;64.05;99660.91;5051049;28;20287;-84
2022/05/09 06:39:36;;;;;;;8.40;3.03;;;;;;;17.13;61.95;99648.16;5050708;28;20641;-84
2022/05/09 06:42:06;;;;;;;8.43;3.80;;;;;;;17.62;60.78;99652.59;5050720;28;20201;-84
2022/05/09 06:44:31;;;;;;;5.43;2.97;;;;;;;18.14;58.52;99650.41;5051855;28;20199;-84
2022/05/09 06:46:56;;;;;;;5.77;3.00;;;;;;;18.51;57.57;99653.81;5051888;28;20620;-84
2022/05/09 06:49:22;;;;;;;6.57;2.70;;;;;;;18.80;56.67;99649.75;5051582;28;20173;-83
2022/05/09 06:51:48;;;;;;;5.17;2.17;;;;;;;18.88;52.17;99644.69;5050595;28;20177;-83
2022/05/09 06:54:16;;;;;;;4.50;2.07;;;;;;;18.86;51.50;99653.75;5051629;28;20245;-84
2022/05/09 06:56:42;;;;;;;5.07;2.10;;;;;;;18.69;51.80;99649.72;5050485;28;20177;-83
2022/05/09 06:59:07;;;;;;;4.37;2.00;;;;;;;18.64;51.56;99651.91;5050389;28;20200;-83
2022/05/09 07:01:33;;;;;;;5.80;2.47;;;;;;;18.77;53.01;99655.28;5051272;28;20204;-83
2022/05/09 07:03:58;;;;;;;5.17;2.53;;;;;;;19.14;52.12;99653.25;5051310;28;20174;-83
2022/05/09 07:06:24;;;;;;;6.37;3.03;;;;;;;19.44;50.93;99655.31;5051288;28;20227;-83
2022/05/09 07:08:49;;;;;;;6.03;2.67;;;;;;;19.42;48.73;99651.91;5050343;28;20182;-83
2022/05/09 07:11:15;;;;;;;3.40;1.80;;;;;;;19.67;50.66;99654.28;5051177;28;20591;-83
2022/05/09 07:13:41;;;;;;;11.20;2.80;;;;;;;19.80;49.90;99651.47;5051178;28;20171;-83
2022/05/09 07:16:08;;;;;;;5.30;2.83;;;;;;;19.93;49.90;99650.31;5051396;28;20182;-83
2022/05/09 07:18:34;;;;;;;8.27;2.47;;;;;;;20.13;48.85;99649.50;5051089;28;20209;-84
2022/05/09 07:21:00;;;;;;;4.87;2.37;;;;;;;20.35;48.16;99647.72;5051510;28;20287;-84
2022/05/09 07:23:25;;;;;;;9.20;2.40;;;;;;;20.56;47.41;99645.91;5051550;28;20264;-83
2022/05/09 07:25:51;;;;;;;5.37;2.73;;;;;;;20.45;46.21;99648.63;5051240;28;20632;-83
2022/05/09 07:28:19;;;;;;;7.93;3.17;;;;;;;20.52;48.75;99645.31;5050960;28;20205;-83
2022/05/09 07:30:45;;;;;;;9.90;3.73;;;;;;;20.77;45.79;99638.75;5050891;28;20269;-82
2022/05/09 07:33:11;;;;;;;6.67;2.80;;;;;;;20.94;46.91;99637.28;5049921;28;20654;-84
2022/05/09 07:35:37;;;;;;;6.23;2.40;;;;;;;20.84;46.10;99639.88;5050829;28;20352;-83
2022/05/09 07:38:02;;;;;;;6.33;2.43;;;;;;;20.92;46.22;99633.88;5050776;28;20625;-84
2022/05/09 07:40:28;;;;;;;6.60;2.60;;;;;;;21.02;47.84;99632.94;5033209;28;20220;-83
2022/05/09 07:42:53;;;;;;;3.77;2.00;;;;;;;21.04;46.00;99640.84;5050777;28;20181;-84
2022/05/09 07:45:19;;;;;;;5.17;2.43;;;;;;;21.19;46.76;99639.50;5033257;28;20186;-84
2022/05/09 07:47:46;;;;;;;4.87;1.90;;;;;;;21.23;44.11;99640.91;5050652;28;20254;-83
2022/05/09 07:50:13;;;;;;;3.90;2.10;;;;;;;20.80;43.48;99644.66;5051107;28;20207;-83
2022/05/09 07:52:39;;;;;;;6.17;2.07;;;;;;;20.88;45.37;99641.31;5050560;28;20192;-84
2022/05/09 07:55:05;;;;;;;3.53;1.80;;;;;;;21.14;45.33;99650.59;5050471;28;20277;-84
2022/05/09 07:57:30;;;;;;;7.47;2.37;;;;;;;21.02;42.98;99658.75;5050506;28;20621;-83
2022/05/09 07:59:59;;;;;;;4.97;2.20;;;;;;;20.99;45.52;99651.88;5050678;28;20209;-83
2022/05/09 08:02:24;;;;;;;5.93;2.33;;;;;;;21.11;45.27;99650.00;5049435;28;20257;-83
2022/05/09 08:04:50;;;;;;;5.77;2.30;;;;;;;21.34;44.30;99649.66;5050695;28;20182;-83
2022/05/09 08:07:16;;;;;;;5.07;2.03;;;;;;;21.47;43.27;99649.41;5049458;28;20624;-83
2022/05/09 08:09:42;;;;;;;5.63;2.30;;;;;;;21.49;43.79;99654.63;5049402;28;20178;-84
2022/05/09 08:12:08;;;;;;;7.20;2.33;;;;;;;21.63;43.71;99654.22;5050327;28;20178;-84
2022/05/09 08:14:33;;;;;;;4.70;2.13;;;;;;;21.30;44.07;99653.56;5050261;28;20314;-83
2022/05/09 08:17:00;;;;;;;4.17;2.03;;;;;;;21.41;44.11;99650.78;5039411;28;20268;-83
2022/05/09 08:19:29;;;;;;;3.17;1.70;;;;;;;21.57;43.49;99652.09;5037039;28;20334;-84
2022/05/09 08:21:55;;;;;;;3.07;1.10;;;;;;;21.29;41.99;99653.72;5030583;28;20743;-84
2022/05/09 08:24:20;;;;;;;2.93;1.13;;;;;;;21.35;41.66;99651.34;5029321;28;20277;-83
2022/05/09 08:26:45;;;;;;;2.83;1.20;;;;;;;21.53;42.30;99653.34;5029309;28;20258;-84
2022/05/09 08:29:11;;;;;;;3.87;1.20;;;;;;;21.81;41.14;99652.56;5030214;28;20629;-83
2022/05/09 08:31:37;;;;;;;3.83;1.57;;;;;;;21.96;41.11;99656.53;5029241;28;20219;-84
2022/05/09 08:34:02;;;;;;;4.77;1.40;;;;;;;22.04;40.38;99648.66;5030421;28;20183;-84
2022/05/09 08:36:46;;;;;;;2.77;1.10;;;;;;;22.02;41.24;99653.31;5029215;28;20239;-84
2022/05/09 08:39:13;;;;;;;3.07;1.33;;;;;;;22.04;38.92;99649.50;5030379;28;20246;-84
2022/05/09 08:42:05;;;;;;;5.73;1.07;;;;;;;21.53;41.10;99654.22;5029038;28;20568;-85
2022/05/09 08:44:47;;;;;;;1.90;0.63;;;;;;;21.68;40.47;99657.31;5030554;28;20178;-85
2022/05/09 08:47:13;;;;;;;2.90;1.07;;;;;;;21.91;40.66;99650.75;5030290;28;20212;-83
2022/05/09 08:49:50;;;;;;;2.50;0.80;;;;;;;21.96;40.81;99645.84;5043310;28;20285;-84
2022/05/09 08:52:33;;;;;;;2.37;1.13;;;;;;;22.34;41.38;99643.19;5052350;28;20166;-83
2022/05/09 08:54:59;;;;;;;1.93;0.93;;;;;;;22.79;38.80;99645.22;5051157;28;20186;-83
2022/05/09 08:57:31;;;;;;;1.43;0.70;;;;;;;22.76;38.29;99624.97;5050312;28;20177;-83
2022/05/09 09:00:01;;;;;;;2.70;0.73;;;;;;;23.03;39.32;99637.53;5051177;28;20195;-83
2022/05/09 09:02:40;;;;;;;2.70;0.90;;;;;;;22.63;39.10;99643.16;5051202;28;20180;-84
2022/05/09 09:05:11;;;;;;;2.70;1.07;;;;;;;22.99;39.65;99636.13;5051656;28;20184;-84
2022/05/09 09:08:00;;;;;;;5.37;0.97;;;;;;;23.28;41.19;99639.53;5053363;28;20173;-84
2022/05/09 09:10:34;;;;;;;1.97;1.20;;;;;;;23.49;41.14;99634.78;5052198;28;20181;-84
2022/05/09 09:13:22;;;;;;;1.97;0.80;;;;;;;23.64;41.36;99630.59;5051311;28;20229;-85
2022/05/09 09:16:37;;;;;;;2.00;0.87;;;;;;;23.88;38.36;99640.72;5050013;28;20192;-85
2022/05/09 09:19:11;;;;;;;5.47;1.17;;;;;;;23.82;39.71;99634.13;5050191;28;20170;-85
2022/05/09 09:22:12;;;;;;;2.97;0.90;;;;;;;23.81;39.64;99640.50;5049809;28;20535;-84
2022/05/09 09:24:56;;;;;;;1.83;0.90;;;;;;;23.96;37.13;99627.41;5042500;28;20201;-85
2022/05/09 09:27:31;;;;;;;1.97;0.87;;;;;;;23.83;40.00;99632.28;5051600;28;20207;-84
2022/05/09 09:29:59;;;;;;;1.97;0.80;;;;;;;23.93;38.09;99626.84;5052853;28;20244;-84
2022/05/09 09:32:25;;;;;;;2.60;1.33;;;;;;;24.07;38.99;99637.88;5052765;28;20182;-85
2022/05/09 09:35:03;;;;;;;2.93;1.10;;;;;;;24.55;38.37;99624.06;5051759;28;20170;-85
2022/05/09 09:37:31;;;;;;;3.57;0.97;;;;;;;24.49;37.28;99621.16;5052970;28;20616;-89
2022/05/09 09:39:57;;;;;;;2.73;1.03;;;;;;;24.53;37.06;99630.59;5053366;28;20200;-88
2022/05/09 09:42:23;;;;;;;2.47;1.00;;;;;;;24.62;37.19;99625.13;5052621;28;20209;-88
2022/05/09 09:44:49;;;;;;;2.23;1.00;;;;;;;24.61;39.84;99623.41;5051919;28;20583;-88
2022/05/09 09:47:28;;;;;;;2.40;1.40;;;;;;;24.79;40.39;99626.91;5051606;28;20200;-88
2022/05/09 09:50:14;;;;;;;1.87;1.00;;;;;;;24.89;37.43;99619.63;5051761;28;20635;-86
2022/05/09 09:52:53;;;;;;;2.00;0.73;;;;;;;25.06;38.29;99612.47;5051921;28;20526;-87
2022/05/09 09:55:36;;;;;;;2.87;1.20;;;;;;;25.20;36.36;99611.03;5047124;28;20209;-87
2022/05/09 09:58:26;;;;;;;2.73;0.87;;;;;;;25.33;38.68;99616.78;5031464;28;20647;-88
2022/05/09 10:01:08;;;;;;;3.23;1.23;;;;;;;25.10;37.96;99618.38;5031227;28;20630;-87
2022/05/09 10:03:38;;;;;;;2.53;1.30;;;;;;;25.16;36.59;99607.00;5033018;28;20186;-87
2022/05/09 10:06:14;;;;;;;5.57;1.80;;;;;;;25.37;38.48;99610.91;5032169;28;20202;-88
2022/05/09 10:08:40;;;;;;;4.77;1.20;;;;;;;25.42;37.30;99607.75;5032096;28;20200;-86
2022/05/09 10:11:19;;;;;;;3.53;1.07;;;;;;;25.63;36.93;99605.47;5032550;28;20178;-86
2022/05/09 10:13:47;;;;;;;3.03;1.37;;;;;;;25.18;36.92;99605.00;5031567;28;20174;-86
2022/05/09 10:16:24;;;;;;;5.33;1.30;;;;;;;25.11;38.56;99610.16;5032134;28;20243;-86
2022/05/09 10:18:52;;;;;;;5.10;1.40;;;;;;;25.49;38.29;99598.91;5031220;28;20182;-86
2022/05/09 10:24:49;;;;;;;3.73;1.50;;;;;;;25.77;37.69;99604.84;5032652;28;20228;-86
2022/05/09 10:27:20;;;;;;;4.85;1.92;;;;;;;25.75;35.97;99598.78;5026714;28;20200;-87
2022/05/09 10:29:47;;;;;;;3.97;1.50;;;;;;;26.04;37.00;99593.78;5032011;28;20571;-87
2022/05/09 10:32:15;;;;;;;3.63;1.63;;;;;;;25.75;36.47;99588.06;5031888;28;20188;-87
2022/05/09 10:35:01;;;;;;;2.63;1.30;;;;;;;26.33;36.75;99587.06;5031867;28;20625;-87
2022/05/09 10:37:38;;;;;;;2.90;1.37;;;;;;;26.49;35.65;99581.69;5032229;28;20620;-87
2022/05/09 10:40:25;;;;;;;6.40;2.23;;;;;;;26.27;34.91;99587.75;5031268;28;20196;-87
2022/05/09 10:42:59;;;;;;;4.07;1.73;;;;;;;26.18;35.76;99594.97;5030694;28;20182;-86
2022/05/09 10:45:28;;;;;;;7.20;1.48;;;;;;;26.11;36.77;99585.88;5032297;28;20167;-86
2022/05/09 10:48:43;;;;;;;3.57;1.80;;;;;;;26.14;35.24;99578.38;5031682;28;20178;-87
2022/05/09 10:51:39;;;;;;;3.33;1.90;;;;;;;25.79;35.81;99584.00;5033959;28;20198;-87
2022/05/09 10:54:39;;;;;;;7.00;2.20;;;;;;;26.34;36.16;99572.59;5023050;28;20235;-86
2022/05/09 10:57:33;;;;;;;4.90;2.55;;;;;;;25.99;36.41;99576.50;5031827;28;20170;-87
2022/05/09 11:00:09;;;;;;;5.25;1.90;;;;;;;26.54;34.97;99568.56;5024709;28;20221;-87
2022/05/09 11:02:39;;;;;;;3.72;1.48;;;;;;;26.50;34.97;99572.59;5030538;28;20629;-87
2022/05/09 11:05:05;;;;;;;5.20;1.85;;;;;;;26.27;35.14;99569.78;5031357;28;20186;-87
2022/05/09 11:07:49;;;;;;;5.00;1.70;;;;;;;26.32;35.83;99567.41;5030475;28;20187;-88
2022/05/09 11:14:19;;;;;;;5.78;2.60;;;;;;;26.63;35.25;99562.13;5091990;28;20188;-88
2022/05/09 11:17:17;;;;;;;4.72;1.80;;;;;;;27.22;36.40;99560.78;5092693;28;20168;-88
2022/05/09 11:20:17;;;;;;;3.83;1.60;;;;;;;27.36;33.47;99557.31;5031469;28;20159;-87
2022/05/09 11:22:42;;;;;;;4.45;1.15;;;;;;;27.62;33.71;99559.72;5030212;28;20181;-87
2022/05/09 11:25:20;;;;;;;3.97;1.17;;;;;;;27.89;32.55;99551.09;5030178;28;20187;-88
2022/05/09 11:28:19;;;;;;;4.07;1.77;;;;;;;28.13;32.87;99541.97;5031680;28;20170;-86
2022/05/09 11:31:01;;;;;;;2.65;0.95;;;;;;;27.99;34.04;99540.88;5031636;28;20253;-87
2022/05/09 11:33:52;;;;;;;1.45;0.40;;;;;;;28.32;32.65;99536.91;5031348;28;20176;-88
2022/05/09 11:36:43;;;;;;;1.63;0.60;;;;;;;28.29;31.38;99539.13;5031285;28;20632;-86
2022/05/09 11:39:17;;;;;;;1.80;0.68;;;;;;;28.28;31.76;99551.78;5029969;28;20625;-86
2022/05/09 11:43:27;;;;;;;1.83;0.63;;;;;;;28.03;31.71;99536.84;5029928;28;20197;-87
2022/05/09 11:45:09;;;;;;;1.88;0.90;;;;;;;28.62;30.74;99529.69;5030796;28;20241;-87
2022/05/09 11:47:46;;;;;;;1.95;0.90;;;;;;;28.37;31.02;99539.91;5029850;28;20207;-87
2022/05/09 11:50:29;;;;;;;1.95;0.90;;;;;;;28.34;30.74;99524.09;5031048;28;20165;-88
2022/05/09 11:52:57;;;;;;;4.35;1.27;;;;;;;28.47;29.20;99528.81;5029658;28;20323;-86
2022/05/09 11:55:24;;;;;;;1.15;0.40;;;;;;;28.62;27.33;99532.38;5029753;28;20621;-87
2022/05/09 11:57:55;;;;;;;2.67;0.50;;;;;;;28.78;26.91;99531.38;5031440;28;20185;-88
2022/05/09 12:00:27;;;;;;;3.05;0.40;;;;;;;28.70;25.71;99529.59;5029624;28;20579;-87
2022/05/09 12:02:58;;;;;;;1.48;0.60;;;;;;;28.62;26.45;99527.84;5031104;28;20178;-87